sensor_id;sensor_type;location;lat;lon;timestamp;P1;durP1;ratioP1;P2;durP2;ratioP2
29246;SDS011;16272;48.188;9.964;2023-08-21T00:01:25;13.03;;;8.30;;
29246;SDS011;16272;48.188;9.964;2023-08-21T00:03:51;13.90;;;7.33;;
29246;SDS011;16272;48.188;9.964;2023-08-21T00:06:16;11.53;;;7.30;;
29246;SDS011;16272;48.188;9.964;2023-08-21T00:08:41;13.37;;;7.80;;
29246;SDS011;16272;48.188;9.964;2023-08-21T00:11:06;12.17;;;7.53;;
29246;SDS011;16272;48.188;9.964;2023-08-21T00:13:32;15.13;;;7.90;;
29246;SDS011;16272;48.188;9.964;2023-08-21T00:15:57;12.00;;;7.70;;
29246;SDS011;16272;48.188;9.964;2023-08-21T00:18:22;12.63;;;7.47;;
29246;SDS011;16272;48.188;9.964;2023-08-21T00:20:48;13.73;;;8.20;;
29246;SDS011;16272;48.188;9.964;2023-08-21T00:23:13;11.98;;;7.68;;
29246;SDS011;16272;48.188;9.964;2023-08-21T00:25:39;12.67;;;7.20;;
29246;SDS011;16272;48.188;9.964;2023-08-21T00:28:04;12.63;;;8.03;;
29246;SDS011;16272;48.188;9.964;2023-08-21T00:30:30;12.88;;;7.50;;
29246;SDS011;16272;48.188;9.964;2023-08-21T00:32:55;12.97;;;8.10;;
29246;SDS011;16272;48.188;9.964;2023-08-21T00:35:20;13.63;;;7.90;;
29246;SDS011;16272;48.188;9.964;2023-08-21T00:37:46;12.90;;;8.50;;
29246;SDS011;16272;48.188;9.964;2023-08-21T00:40:12;16.50;;;8.73;;
29246;SDS011;16272;48.188;9.964;2023-08-21T00:42:37;13.95;;;8.13;;
29246;SDS011;16272;48.188;9.964;2023-08-21T00:45:03;14.33;;;8.30;;
29246;SDS011;16272;48.188;9.964;2023-08-21T00:47:28;14.52;;;8.48;;
29246;SDS011;16272;48.188;9.964;2023-08-21T00:49:54;12.53;;;7.87;;
29246;SDS011;16272;48.188;9.964;2023-08-21T00:52:20;13.65;;;8.02;;
29246;SDS011;16272;48.188;9.964;2023-08-21T00:54:46;13.03;;;8.17;;
29246;SDS011;16272;48.188;9.964;2023-08-21T00:57:11;14.33;;;8.53;;
29246;SDS011;16272;48.188;9.964;2023-08-21T00:59:37;14.20;;;8.25;;
29246;SDS011;16272;48.188;9.964;2023-08-21T01:02:03;13.20;;;8.38;;
29246;SDS011;16272;48.188;9.964;2023-08-21T01:04:29;17.07;;;8.37;;
29246;SDS011;16272;48.188;9.964;2023-08-21T01:06:54;12.93;;;8.07;;
29246;SDS011;16272;48.188;9.964;2023-08-21T01:12:03;14.10;;;8.43;;
29246;SDS011;16272;48.188;9.964;2023-08-21T01:17:33;13.70;;;8.35;;
29246;SDS011;16272;48.188;9.964;2023-08-21T01:20:00;13.20;;;8.38;;
29246;SDS011;16272;48.188;9.964;2023-08-21T01:22:35;13.38;;;7.93;;
29246;SDS011;16272;48.188;9.964;2023-08-21T01:25:03;13.40;;;7.37;;
29246;SDS011;16272;48.188;9.964;2023-08-21T01:27:29;11.95;;;8.00;;
29246;SDS011;16272;48.188;9.964;2023-08-21T01:29:55;15.57;;;8.43;;
29246;SDS011;16272;48.188;9.964;2023-08-21T01:32:21;12.70;;;7.80;;
29246;SDS011;16272;48.188;9.964;2023-08-21T01:34:54;13.35;;;8.07;;
29246;SDS011;16272;48.188;9.964;2023-08-21T01:37:21;15.60;;;8.73;;
29246;SDS011;16272;48.188;9.964;2023-08-21T01:39:47;13.07;;;8.27;;
29246;SDS011;16272;48.188;9.964;2023-08-21T01:42:12;15.50;;;7.73;;
29246;SDS011;16272;48.188;9.964;2023-08-21T01:44:38;12.67;;;8.13;;
29246;SDS011;16272;48.188;9.964;2023-08-21T01:47:03;13.23;;;8.10;;
29246;SDS011;16272;48.188;9.964;2023-08-21T01:49:29;14.00;;;8.02;;
29246;SDS011;16272;48.188;9.964;2023-08-21T01:51:54;12.83;;;8.17;;
29246;SDS011;16272;48.188;9.964;2023-08-21T01:54:19;13.73;;;8.47;;
29246;SDS011;16272;48.188;9.964;2023-08-21T01:56:45;16.37;;;8.53;;
29246;SDS011;16272;48.188;9.964;2023-08-21T01:59:10;14.33;;;8.57;;
29246;SDS011;16272;48.188;9.964;2023-08-21T02:01:35;14.87;;;8.80;;
29246;SDS011;16272;48.188;9.964;2023-08-21T02:04:00;13.80;;;8.17;;
29246;SDS011;16272;48.188;9.964;2023-08-21T02:06:26;14.93;;;8.17;;
29246;SDS011;16272;48.188;9.964;2023-08-21T02:08:51;14.93;;;8.03;;
29246;SDS011;16272;48.188;9.964;2023-08-21T02:11:17;13.33;;;7.77;;
29246;SDS011;16272;48.188;9.964;2023-08-21T02:13:42;15.00;;;8.40;;
29246;SDS011;16272;48.188;9.964;2023-08-21T02:16:07;13.20;;;8.47;;
29246;SDS011;16272;48.188;9.964;2023-08-21T02:18:33;15.80;;;8.70;;
29246;SDS011;16272;48.188;9.964;2023-08-21T02:21:00;15.00;;;8.37;;
29246;SDS011;16272;48.188;9.964;2023-08-21T02:23:26;14.48;;;8.68;;
29246;SDS011;16272;48.188;9.964;2023-08-21T02:25:52;16.07;;;9.50;;
29246;SDS011;16272;48.188;9.964;2023-08-21T02:28:17;15.65;;;8.65;;
29246;SDS011;16272;48.188;9.964;2023-08-21T02:30:42;14.10;;;8.53;;
29246;SDS011;16272;48.188;9.964;2023-08-21T02:33:08;15.47;;;9.47;;
29246;SDS011;16272;48.188;9.964;2023-08-21T02:35:34;13.73;;;8.77;;
29246;SDS011;16272;48.188;9.964;2023-08-21T02:37:59;13.33;;;8.53;;
29246;SDS011;16272;48.188;9.964;2023-08-21T02:40:24;14.77;;;8.57;;
29246;SDS011;16272;48.188;9.964;2023-08-21T02:42:50;15.03;;;8.80;;
29246;SDS011;16272;48.188;9.964;2023-08-21T02:45:15;12.27;;;8.20;;
29246;SDS011;16272;48.188;9.964;2023-08-21T02:47:41;13.93;;;8.63;;
29246;SDS011;16272;48.188;9.964;2023-08-21T02:50:07;21.13;;;9.30;;
29246;SDS011;16272;48.188;9.964;2023-08-21T02:52:34;13.45;;;8.07;;
29246;SDS011;16272;48.188;9.964;2023-08-21T02:55:00;14.52;;;8.55;;
29246;SDS011;16272;48.188;9.964;2023-08-21T02:57:27;13.93;;;8.48;;
29246;SDS011;16272;48.188;9.964;2023-08-21T02:59:52;13.70;;;8.60;;
29246;SDS011;16272;48.188;9.964;2023-08-21T03:02:18;15.13;;;8.30;;
29246;SDS011;16272;48.188;9.964;2023-08-21T03:04:44;13.83;;;8.20;;
29246;SDS011;16272;48.188;9.964;2023-08-21T03:07:09;14.00;;;8.18;;
29246;SDS011;16272;48.188;9.964;2023-08-21T03:09:36;14.37;;;8.97;;
29246;SDS011;16272;48.188;9.964;2023-08-21T03:12:02;14.07;;;8.05;;
29246;SDS011;16272;48.188;9.964;2023-08-21T03:14:27;20.97;;;8.80;;
29246;SDS011;16272;48.188;9.964;2023-08-21T03:16:52;14.50;;;8.40;;
29246;SDS011;16272;48.188;9.964;2023-08-21T03:19:18;13.60;;;8.40;;
29246;SDS011;16272;48.188;9.964;2023-08-21T03:21:43;13.33;;;8.80;;
29246;SDS011;16272;48.188;9.964;2023-08-21T03:24:09;14.77;;;8.35;;
29246;SDS011;16272;48.188;9.964;2023-08-21T03:26:34;13.37;;;8.20;;
29246;SDS011;16272;48.188;9.964;2023-08-21T03:28:59;15.77;;;8.97;;
29246;SDS011;16272;48.188;9.964;2023-08-21T03:31:25;17.13;;;9.13;;
29246;SDS011;16272;48.188;9.964;2023-08-21T03:33:51;14.40;;;8.30;;
29246;SDS011;16272;48.188;9.964;2023-08-21T03:36:16;13.63;;;8.37;;
29246;SDS011;16272;48.188;9.964;2023-08-21T03:38:41;13.73;;;8.63;;
29246;SDS011;16272;48.188;9.964;2023-08-21T03:41:07;13.73;;;7.83;;
29246;SDS011;16272;48.188;9.964;2023-08-21T03:43:32;14.57;;;8.53;;
29246;SDS011;16272;48.188;9.964;2023-08-21T03:45:57;13.15;;;8.10;;
29246;SDS011;16272;48.188;9.964;2023-08-21T03:48:23;14.07;;;8.23;;
29246;SDS011;16272;48.188;9.964;2023-08-21T03:50:49;13.37;;;7.87;;
29246;SDS011;16272;48.188;9.964;2023-08-21T03:53:14;15.48;;;8.18;;
29246;SDS011;16272;48.188;9.964;2023-08-21T03:55:40;13.60;;;8.07;;
29246;SDS011;16272;48.188;9.964;2023-08-21T03:58:05;13.63;;;8.30;;
29246;SDS011;16272;48.188;9.964;2023-08-21T04:00:30;13.57;;;8.57;;
29246;SDS011;16272;48.188;9.964;2023-08-21T04:02:57;14.57;;;8.43;;
29246;SDS011;16272;48.188;9.964;2023-08-21T04:05:22;14.95;;;7.93;;
29246;SDS011;16272;48.188;9.964;2023-08-21T04:07:47;15.17;;;8.53;;
29246;SDS011;16272;48.188;9.964;2023-08-21T04:10:13;14.60;;;8.53;;
29246;SDS011;16272;48.188;9.964;2023-08-21T04:12:38;13.27;;;7.57;;
29246;SDS011;16272;48.188;9.964;2023-08-21T04:15:03;14.57;;;8.00;;
29246;SDS011;16272;48.188;9.964;2023-08-21T04:17:30;14.65;;;7.80;;
29246;SDS011;16272;48.188;9.964;2023-08-21T04:19:55;13.23;;;8.03;;
29246;SDS011;16272;48.188;9.964;2023-08-21T04:22:20;15.00;;;8.23;;
29246;SDS011;16272;48.188;9.964;2023-08-21T04:24:45;14.10;;;8.43;;
29246;SDS011;16272;48.188;9.964;2023-08-21T04:27:11;14.10;;;8.23;;
29246;SDS011;16272;48.188;9.964;2023-08-21T04:29:37;15.03;;;8.83;;
29246;SDS011;16272;48.188;9.964;2023-08-21T04:32:03;15.00;;;8.90;;
29246;SDS011;16272;48.188;9.964;2023-08-21T04:34:29;14.32;;;8.65;;
29246;SDS011;16272;48.188;9.964;2023-08-21T04:36:54;13.70;;;8.97;;
29246;SDS011;16272;48.188;9.964;2023-08-21T04:39:19;15.63;;;9.47;;
29246;SDS011;16272;48.188;9.964;2023-08-21T04:41:44;14.97;;;8.67;;
29246;SDS011;16272;48.188;9.964;2023-08-21T04:44:10;12.40;;;8.53;;
29246;SDS011;16272;48.188;9.964;2023-08-21T04:46:35;14.30;;;9.07;;
29246;SDS011;16272;48.188;9.964;2023-08-21T04:49:01;15.97;;;8.23;;
29246;SDS011;16272;48.188;9.964;2023-08-21T04:51:26;16.70;;;8.70;;
29246;SDS011;16272;48.188;9.964;2023-08-21T04:53:51;14.33;;;8.57;;
29246;SDS011;16272;48.188;9.964;2023-08-21T04:56:17;14.73;;;9.03;;
29246;SDS011;16272;48.188;9.964;2023-08-21T04:58:42;14.67;;;8.00;;
29246;SDS011;16272;48.188;9.964;2023-08-21T05:01:07;14.77;;;9.00;;
29246;SDS011;16272;48.188;9.964;2023-08-21T05:03:33;14.38;;;9.30;;
29246;SDS011;16272;48.188;9.964;2023-08-21T05:05:59;13.70;;;8.57;;
29246;SDS011;16272;48.188;9.964;2023-08-21T05:08:24;14.90;;;8.50;;
29246;SDS011;16272;48.188;9.964;2023-08-21T05:10:54;14.15;;;8.65;;
29246;SDS011;16272;48.188;9.964;2023-08-21T05:13:21;14.52;;;9.27;;
29246;SDS011;16272;48.188;9.964;2023-08-21T05:15:50;16.67;;;9.27;;
29246;SDS011;16272;48.188;9.964;2023-08-21T05:18:17;14.40;;;8.50;;
29246;SDS011;16272;48.188;9.964;2023-08-21T05:20:42;16.23;;;9.53;;
29246;SDS011;16272;48.188;9.964;2023-08-21T05:23:08;15.37;;;9.20;;
29246;SDS011;16272;48.188;9.964;2023-08-21T05:25:33;15.63;;;9.40;;
29246;SDS011;16272;48.188;9.964;2023-08-21T05:27:58;14.07;;;9.30;;
29246;SDS011;16272;48.188;9.964;2023-08-21T05:30:23;16.23;;;9.20;;
29246;SDS011;16272;48.188;9.964;2023-08-21T05:32:49;15.00;;;9.63;;
29246;SDS011;16272;48.188;9.964;2023-08-21T05:35:14;16.77;;;9.83;;
29246;SDS011;16272;48.188;9.964;2023-08-21T05:37:39;15.93;;;10.43;;
29246;SDS011;16272;48.188;9.964;2023-08-21T05:40:05;17.97;;;10.47;;
29246;SDS011;16272;48.188;9.964;2023-08-21T05:42:30;16.70;;;10.18;;
29246;SDS011;16272;48.188;9.964;2023-08-21T05:44:56;18.07;;;10.37;;
29246;SDS011;16272;48.188;9.964;2023-08-21T05:47:21;17.60;;;11.60;;
29246;SDS011;16272;48.188;9.964;2023-08-21T05:49:48;16.98;;;10.65;;
29246;SDS011;16272;48.188;9.964;2023-08-21T05:52:14;17.40;;;10.83;;
29246;SDS011;16272;48.188;9.964;2023-08-21T05:54:39;18.30;;;11.40;;
29246;SDS011;16272;48.188;9.964;2023-08-21T05:57:04;18.40;;;11.67;;
29246;SDS011;16272;48.188;9.964;2023-08-21T05:59:30;17.03;;;10.93;;
29246;SDS011;16272;48.188;9.964;2023-08-21T06:01:57;17.25;;;10.82;;
29246;SDS011;16272;48.188;9.964;2023-08-21T06:04:22;17.17;;;10.57;;
29246;SDS011;16272;48.188;9.964;2023-08-21T06:06:47;16.90;;;11.03;;
29246;SDS011;16272;48.188;9.964;2023-08-21T06:09:13;17.47;;;10.93;;
29246;SDS011;16272;48.188;9.964;2023-08-21T06:11:38;17.48;;;10.55;;
29246;SDS011;16272;48.188;9.964;2023-08-21T06:14:04;18.00;;;11.50;;
29246;SDS011;16272;48.188;9.964;2023-08-21T06:16:29;18.03;;;11.60;;
29246;SDS011;16272;48.188;9.964;2023-08-21T06:18:54;15.70;;;10.27;;
29246;SDS011;16272;48.188;9.964;2023-08-21T06:21:20;17.43;;;11.43;;
29246;SDS011;16272;48.188;9.964;2023-08-21T06:23:45;18.10;;;10.53;;
29246;SDS011;16272;48.188;9.964;2023-08-21T06:26:10;18.73;;;11.03;;
29246;SDS011;16272;48.188;9.964;2023-08-21T06:28:35;19.57;;;11.97;;
29246;SDS011;16272;48.188;9.964;2023-08-21T06:31:01;18.37;;;11.63;;
29246;SDS011;16272;48.188;9.964;2023-08-21T06:33:32;17.23;;;11.68;;
29246;SDS011;16272;48.188;9.964;2023-08-21T06:35:58;19.57;;;12.13;;
29246;SDS011;16272;48.188;9.964;2023-08-21T06:38:23;19.10;;;12.30;;
29246;SDS011;16272;48.188;9.964;2023-08-21T06:40:49;18.87;;;12.00;;
29246;SDS011;16272;48.188;9.964;2023-08-21T06:43:14;17.77;;;12.00;;
29246;SDS011;16272;48.188;9.964;2023-08-21T06:45:39;18.27;;;12.23;;
29246;SDS011;16272;48.188;9.964;2023-08-21T06:48:06;20.00;;;12.55;;
29246;SDS011;16272;48.188;9.964;2023-08-21T06:50:31;19.50;;;13.03;;
29246;SDS011;16272;48.188;9.964;2023-08-21T06:52:56;17.63;;;12.77;;
29246;SDS011;16272;48.188;9.964;2023-08-21T06:55:22;18.03;;;12.63;;
29246;SDS011;16272;48.188;9.964;2023-08-21T06:57:47;18.80;;;12.57;;
29246;SDS011;16272;48.188;9.964;2023-08-21T07:00:12;19.07;;;12.10;;
29246;SDS011;16272;48.188;9.964;2023-08-21T07:02:38;22.33;;;12.17;;
29246;SDS011;16272;48.188;9.964;2023-08-21T07:05:03;17.43;;;12.10;;
29246;SDS011;16272;48.188;9.964;2023-08-21T07:07:29;17.77;;;12.35;;
29246;SDS011;16272;48.188;9.964;2023-08-21T07:09:54;19.17;;;12.80;;
29246;SDS011;16272;48.188;9.964;2023-08-21T07:12:21;20.40;;;13.13;;
29246;SDS011;16272;48.188;9.964;2023-08-21T07:14:46;22.75;;;12.82;;
29246;SDS011;16272;48.188;9.964;2023-08-21T07:17:12;19.27;;;12.87;;
29246;SDS011;16272;48.188;9.964;2023-08-21T07:19:37;19.37;;;13.37;;
29246;SDS011;16272;48.188;9.964;2023-08-21T07:22:02;21.57;;;13.00;;
29246;SDS011;16272;48.188;9.964;2023-08-21T07:24:28;22.17;;;13.77;;
29246;SDS011;16272;48.188;9.964;2023-08-21T07:26:53;20.00;;;12.87;;
29246;SDS011;16272;48.188;9.964;2023-08-21T07:29:18;18.03;;;12.10;;
29246;SDS011;16272;48.188;9.964;2023-08-21T07:31:44;20.20;;;11.93;;
29246;SDS011;16272;48.188;9.964;2023-08-21T07:34:09;16.30;;;11.60;;
29246;SDS011;16272;48.188;9.964;2023-08-21T07:36:34;19.33;;;11.43;;
29246;SDS011;16272;48.188;9.964;2023-08-21T07:38:59;17.63;;;11.97;;
29246;SDS011;16272;48.188;9.964;2023-08-21T07:41:25;19.03;;;11.40;;
29246;SDS011;16272;48.188;9.964;2023-08-21T07:43:50;18.47;;;11.77;;
29246;SDS011;16272;48.188;9.964;2023-08-21T07:46:15;17.83;;;11.93;;
29246;SDS011;16272;48.188;9.964;2023-08-21T07:48:43;17.90;;;11.82;;
29246;SDS011;16272;48.188;9.964;2023-08-21T07:51:09;20.77;;;11.03;;
29246;SDS011;16272;48.188;9.964;2023-08-21T07:53:35;16.48;;;11.05;;
29246;SDS011;16272;48.188;9.964;2023-08-21T07:56:00;17.63;;;10.73;;
29246;SDS011;16272;48.188;9.964;2023-08-21T07:58:27;16.63;;;11.00;;
29246;SDS011;16272;48.188;9.964;2023-08-21T08:00:52;18.13;;;11.00;;
29246;SDS011;16272;48.188;9.964;2023-08-21T08:03:17;16.07;;;10.43;;
29246;SDS011;16272;48.188;9.964;2023-08-21T08:05:43;16.17;;;11.20;;
29246;SDS011;16272;48.188;9.964;2023-08-21T08:08:08;18.10;;;10.27;;
29246;SDS011;16272;48.188;9.964;2023-08-21T08:10:40;17.35;;;10.40;;
29246;SDS011;16272;48.188;9.964;2023-08-21T08:13:06;18.48;;;10.75;;
29246;SDS011;16272;48.188;9.964;2023-08-21T08:15:32;16.75;;;10.25;;
29246;SDS011;16272;48.188;9.964;2023-08-21T08:17:59;15.80;;;9.77;;
29246;SDS011;16272;48.188;9.964;2023-08-21T08:20:25;16.17;;;11.13;;
29246;SDS011;16272;48.188;9.964;2023-08-21T08:22:50;16.43;;;10.80;;
29246;SDS011;16272;48.188;9.964;2023-08-21T08:25:15;16.40;;;10.93;;
29246;SDS011;16272;48.188;9.964;2023-08-21T08:27:42;19.40;;;12.65;;
29246;SDS011;16272;48.188;9.964;2023-08-21T08:30:08;17.98;;;11.27;;
29246;SDS011;16272;48.188;9.964;2023-08-21T08:32:34;17.17;;;11.63;;
29246;SDS011;16272;48.188;9.964;2023-08-21T08:34:59;16.23;;;11.73;;
29246;SDS011;16272;48.188;9.964;2023-08-21T08:37:24;20.17;;;12.63;;
29246;SDS011;16272;48.188;9.964;2023-08-21T08:39:50;20.13;;;11.63;;
29246;SDS011;16272;48.188;9.964;2023-08-21T08:42:15;18.77;;;11.47;;
29246;SDS011;16272;48.188;9.964;2023-08-21T08:44:41;16.53;;;11.63;;
29246;SDS011;16272;48.188;9.964;2023-08-21T08:47:08;16.63;;;11.13;;
29246;SDS011;16272;48.188;9.964;2023-08-21T08:49:35;17.02;;;11.23;;
29246;SDS011;16272;48.188;9.964;2023-08-21T08:52:00;16.37;;;10.90;;
29246;SDS011;16272;48.188;9.964;2023-08-21T08:54:26;15.48;;;10.73;;
29246;SDS011;16272;48.188;9.964;2023-08-21T08:56:52;16.77;;;10.73;;
29246;SDS011;16272;48.188;9.964;2023-08-21T08:59:18;14.27;;;10.13;;
29246;SDS011;16272;48.188;9.964;2023-08-21T09:01:43;14.50;;;10.17;;
29246;SDS011;16272;48.188;9.964;2023-08-21T09:04:09;15.27;;;10.23;;
29246;SDS011;16272;48.188;9.964;2023-08-21T09:06:35;16.77;;;10.47;;
29246;SDS011;16272;48.188;9.964;2023-08-21T09:09:00;15.00;;;10.77;;
29246;SDS011;16272;48.188;9.964;2023-08-21T09:11:26;15.80;;;10.70;;
29246;SDS011;16272;48.188;9.964;2023-08-21T09:13:52;14.43;;;10.00;;
29246;SDS011;16272;48.188;9.964;2023-08-21T09:16:18;17.17;;;10.45;;
29246;SDS011;16272;48.188;9.964;2023-08-21T09:18:51;15.35;;;10.43;;
29246;SDS011;16272;48.188;9.964;2023-08-21T09:21:19;16.30;;;10.82;;
29246;SDS011;16272;48.188;9.964;2023-08-21T09:23:45;15.80;;;10.43;;
29246;SDS011;16272;48.188;9.964;2023-08-21T09:26:11;17.58;;;11.13;;
29246;SDS011;16272;48.188;9.964;2023-08-21T09:28:44;14.90;;;10.27;;
29246;SDS011;16272;48.188;9.964;2023-08-21T09:31:10;14.73;;;9.63;;
29246;SDS011;16272;48.188;9.964;2023-08-21T09:33:35;14.13;;;9.48;;
29246;SDS011;16272;48.188;9.964;2023-08-21T09:36:01;15.47;;;9.87;;
29246;SDS011;16272;48.188;9.964;2023-08-21T09:38:29;16.52;;;10.07;;
29246;SDS011;16272;48.188;9.964;2023-08-21T09:40:55;14.50;;;8.40;;
29246;SDS011;16272;48.188;9.964;2023-08-21T09:43:21;11.38;;;7.45;;
29246;SDS011;16272;48.188;9.964;2023-08-21T09:45:48;11.18;;;8.07;;
29246;SDS011;16272;48.188;9.964;2023-08-21T09:48:17;12.85;;;8.45;;
29246;SDS011;16272;48.188;9.964;2023-08-21T09:50:43;10.67;;;7.97;;
29246;SDS011;16272;48.188;9.964;2023-08-21T09:53:09;12.40;;;8.40;;
29246;SDS011;16272;48.188;9.964;2023-08-21T09:55:35;11.45;;;7.63;;
29246;SDS011;16272;48.188;9.964;2023-08-21T09:58:01;13.53;;;8.13;;
29246;SDS011;16272;48.188;9.964;2023-08-21T10:00:30;11.38;;;7.85;;
29246;SDS011;16272;48.188;9.964;2023-08-21T10:03:01;11.82;;;8.55;;
29246;SDS011;16272;48.188;9.964;2023-08-21T10:05:29;12.30;;;8.73;;
29246;SDS011;16272;48.188;9.964;2023-08-21T10:07:56;12.85;;;8.52;;
29246;SDS011;16272;48.188;9.964;2023-08-21T10:10:25;12.48;;;8.50;;
29246;SDS011;16272;48.188;9.964;2023-08-21T10:12:51;13.55;;;8.82;;
29246;SDS011;16272;48.188;9.964;2023-08-21T10:15:16;12.77;;;8.60;;
29246;SDS011;16272;48.188;9.964;2023-08-21T10:17:42;11.33;;;8.63;;
29246;SDS011;16272;48.188;9.964;2023-08-21T10:20:08;14.38;;;8.25;;
29246;SDS011;16272;48.188;9.964;2023-08-21T10:22:48;11.52;;;8.18;;
29246;SDS011;16272;48.188;9.964;2023-08-21T10:25:18;11.77;;;7.97;;
29246;SDS011;16272;48.188;9.964;2023-08-21T10:27:54;11.35;;;8.15;;
29246;SDS011;16272;48.188;9.964;2023-08-21T10:30:29;11.10;;;7.88;;
29246;SDS011;16272;48.188;9.964;2023-08-21T10:32:56;12.13;;;8.73;;
29246;SDS011;16272;48.188;9.964;2023-08-21T10:35:30;10.93;;;7.72;;
29246;SDS011;16272;48.188;9.964;2023-08-21T10:38:15;11.63;;;7.67;;
29246;SDS011;16272;48.188;9.964;2023-08-21T10:46:03;11.20;;;7.97;;
29246;SDS011;16272;48.188;9.964;2023-08-21T10:48:28;10.67;;;7.70;;
29246;SDS011;16272;48.188;9.964;2023-08-21T10:50:53;14.57;;;7.83;;
29246;SDS011;16272;48.188;9.964;2023-08-21T10:53:19;10.88;;;7.97;;
29246;SDS011;16272;48.188;9.964;2023-08-21T10:55:52;11.17;;;7.70;;
29246;SDS011;16272;48.188;9.964;2023-08-21T10:58:18;11.85;;;7.78;;
29246;SDS011;16272;48.188;9.964;2023-08-21T11:00:43;13.73;;;8.10;;
29246;SDS011;16272;48.188;9.964;2023-08-21T11:03:09;10.95;;;7.57;;
29246;SDS011;16272;48.188;9.964;2023-08-21T11:05:35;11.43;;;7.30;;
29246;SDS011;16272;48.188;9.964;2023-08-21T11:08:00;13.63;;;7.43;;
29246;SDS011;16272;48.188;9.964;2023-08-21T11:10:27;11.30;;;7.63;;
29246;SDS011;16272;48.188;9.964;2023-08-21T11:12:56;10.88;;;7.97;;
29246;SDS011;16272;48.188;9.964;2023-08-21T11:15:22;12.13;;;8.43;;
29246;SDS011;16272;48.188;9.964;2023-08-21T11:17:59;12.60;;;7.63;;
29246;SDS011;16272;48.188;9.964;2023-08-21T11:20:32;10.88;;;7.38;;
29246;SDS011;16272;48.188;9.964;2023-08-21T11:22:59;12.32;;;7.50;;
29246;SDS011;16272;48.188;9.964;2023-08-21T11:25:31;10.68;;;7.72;;
29246;SDS011;16272;48.188;9.964;2023-08-21T11:27:58;10.52;;;7.80;;
29246;SDS011;16272;48.188;9.964;2023-08-21T11:30:23;9.80;;;7.77;;
29246;SDS011;16272;48.188;9.964;2023-08-21T11:32:48;10.55;;;7.10;;
29246;SDS011;16272;48.188;9.964;2023-08-21T11:35:15;10.23;;;7.27;;
29246;SDS011;16272;48.188;9.964;2023-08-21T11:37:44;9.75;;;7.45;;
29246;SDS011;16272;48.188;9.964;2023-08-21T11:40:12;10.45;;;6.88;;
29246;SDS011;16272;48.188;9.964;2023-08-21T11:42:39;10.35;;;7.00;;
29246;SDS011;16272;48.188;9.964;2023-08-21T11:45:04;11.07;;;8.03;;
29246;SDS011;16272;48.188;9.964;2023-08-21T11:47:31;11.43;;;7.40;;
29246;SDS011;16272;48.188;9.964;2023-08-21T11:50:01;9.57;;;7.35;;
29246;SDS011;16272;48.188;9.964;2023-08-21T11:52:31;11.75;;;7.10;;
29246;SDS011;16272;48.188;9.964;2023-08-21T11:54:57;11.20;;;7.87;;
29246;SDS011;16272;48.188;9.964;2023-08-21T11:57:22;10.85;;;7.88;;
29246;SDS011;16272;48.188;9.964;2023-08-21T11:59:51;11.53;;;7.23;;
29246;SDS011;16272;48.188;9.964;2023-08-21T12:02:18;11.65;;;8.25;;
29246;SDS011;16272;48.188;9.964;2023-08-21T12:04:51;12.47;;;8.13;;
29246;SDS011;16272;48.188;9.964;2023-08-21T12:07:20;10.95;;;8.20;;
29246;SDS011;16272;48.188;9.964;2023-08-21T12:09:48;11.48;;;8.00;;
29246;SDS011;16272;48.188;9.964;2023-08-21T12:12:14;10.95;;;7.95;;
29246;SDS011;16272;48.188;9.964;2023-08-21T12:14:40;10.85;;;7.97;;
29246;SDS011;16272;48.188;9.964;2023-08-21T12:17:05;10.23;;;7.87;;
29246;SDS011;16272;48.188;9.964;2023-08-21T12:19:32;12.73;;;8.77;;
29246;SDS011;16272;48.188;9.964;2023-08-21T12:21:57;10.87;;;7.87;;
29246;SDS011;16272;48.188;9.964;2023-08-21T12:24:23;11.80;;;8.07;;
29246;SDS011;16272;48.188;9.964;2023-08-21T12:26:49;10.47;;;7.37;;
29246;SDS011;16272;48.188;9.964;2023-08-21T12:29:14;12.53;;;8.33;;
29246;SDS011;16272;48.188;9.964;2023-08-21T12:31:39;10.10;;;7.50;;
29246;SDS011;16272;48.188;9.964;2023-08-21T12:34:05;11.10;;;7.15;;
29246;SDS011;16272;48.188;9.964;2023-08-21T12:36:30;10.53;;;7.07;;
29246;SDS011;16272;48.188;9.964;2023-08-21T12:38:55;10.50;;;6.93;;
29246;SDS011;16272;48.188;9.964;2023-08-21T12:41:21;13.63;;;7.43;;
29246;SDS011;16272;48.188;9.964;2023-08-21T12:43:46;11.37;;;7.77;;
29246;SDS011;16272;48.188;9.964;2023-08-21T12:46:11;11.17;;;7.37;;
29246;SDS011;16272;48.188;9.964;2023-08-21T12:48:37;12.23;;;7.13;;
29246;SDS011;16272;48.188;9.964;2023-08-21T12:51:02;11.00;;;8.53;;
29246;SDS011;16272;48.188;9.964;2023-08-21T12:53:27;11.85;;;7.53;;
29246;SDS011;16272;48.188;9.964;2023-08-21T12:55:53;11.50;;;7.80;;
29246;SDS011;16272;48.188;9.964;2023-08-21T12:58:18;12.23;;;8.10;;
29246;SDS011;16272;48.188;9.964;2023-08-21T13:00:44;10.63;;;7.70;;
29246;SDS011;16272;48.188;9.964;2023-08-21T13:03:09;12.83;;;8.17;;
29246;SDS011;16272;48.188;9.964;2023-08-21T13:05:34;11.77;;;8.33;;
29246;SDS011;16272;48.188;9.964;2023-08-21T13:08:00;12.30;;;7.47;;
29246;SDS011;16272;48.188;9.964;2023-08-21T13:10:26;10.18;;;7.72;;
29246;SDS011;16272;48.188;9.964;2023-08-21T13:12:51;11.70;;;7.90;;
29246;SDS011;16272;48.188;9.964;2023-08-21T13:15:16;11.05;;;7.35;;
29246;SDS011;16272;48.188;9.964;2023-08-21T13:17:42;10.50;;;7.00;;
29246;SDS011;16272;48.188;9.964;2023-08-21T13:20:08;10.65;;;7.40;;
29246;SDS011;16272;48.188;9.964;2023-08-21T13:22:49;11.38;;;7.25;;
29246;SDS011;16272;48.188;9.964;2023-08-21T13:25:17;11.63;;;7.72;;
29246;SDS011;16272;48.188;9.964;2023-08-21T13:27:43;10.98;;;7.30;;
29246;SDS011;16272;48.188;9.964;2023-08-21T13:30:09;12.07;;;7.00;;
29246;SDS011;16272;48.188;9.964;2023-08-21T13:32:35;10.77;;;7.90;;
29246;SDS011;16272;48.188;9.964;2023-08-21T13:35:00;11.30;;;7.33;;
29246;SDS011;16272;48.188;9.964;2023-08-21T13:37:26;11.73;;;7.73;;
29246;SDS011;16272;48.188;9.964;2023-08-21T13:39:52;12.30;;;8.30;;
29246;SDS011;16272;48.188;9.964;2023-08-21T13:42:17;10.82;;;8.25;;
29246;SDS011;16272;48.188;9.964;2023-08-21T13:44:43;12.87;;;8.13;;
29246;SDS011;16272;48.188;9.964;2023-08-21T13:47:10;10.48;;;7.78;;
29246;SDS011;16272;48.188;9.964;2023-08-21T13:49:36;11.73;;;7.88;;
29246;SDS011;16272;48.188;9.964;2023-08-21T13:52:02;12.18;;;7.85;;
29246;SDS011;16272;48.188;9.964;2023-08-21T13:54:27;13.10;;;7.47;;
29246;SDS011;16272;48.188;9.964;2023-08-21T13:56:54;9.65;;;7.32;;
29246;SDS011;16272;48.188;9.964;2023-08-21T13:59:19;11.10;;;7.77;;
29246;SDS011;16272;48.188;9.964;2023-08-21T14:01:45;10.80;;;8.70;;
29246;SDS011;16272;48.188;9.964;2023-08-21T14:04:10;11.65;;;7.63;;
29246;SDS011;16272;48.188;9.964;2023-08-21T14:06:36;12.47;;;7.67;;
29246;SDS011;16272;48.188;9.964;2023-08-21T14:09:01;12.87;;;7.17;;
29246;SDS011;16272;48.188;9.964;2023-08-21T14:11:27;10.63;;;7.13;;
29246;SDS011;16272;48.188;9.964;2023-08-21T14:13:52;10.33;;;7.83;;
29246;SDS011;16272;48.188;9.964;2023-08-21T14:16:17;11.23;;;7.25;;
29246;SDS011;16272;48.188;9.964;2023-08-21T14:18:43;11.30;;;7.43;;
29246;SDS011;16272;48.188;9.964;2023-08-21T14:21:08;13.30;;;6.80;;
29246;SDS011;16272;48.188;9.964;2023-08-21T14:23:33;13.67;;;7.63;;
29246;SDS011;16272;48.188;9.964;2023-08-21T14:25:59;11.47;;;7.77;;
29246;SDS011;16272;48.188;9.964;2023-08-21T14:28:24;13.00;;;6.97;;
29246;SDS011;16272;48.188;9.964;2023-08-21T14:30:49;13.48;;;7.30;;
29246;SDS011;16272;48.188;9.964;2023-08-21T14:33:17;10.57;;;7.03;;
29246;SDS011;16272;48.188;9.964;2023-08-21T14:35:43;10.55;;;6.47;;